Time;durP1;ratioP1;P1;durP2;ratioP2;P2;SDS_P1;SDS_P2;PMS_P1;PMS_P2;Temp;Humidity;BMP_temperature;BMP_pressure;BME280_temperature;BME280_humidity;BME280_pressure;Samples;Min_cycle;Max_cycle;Signal;HPM_P1;HPM_P2
2022/11/15 00:01:52;;;;;;;19.50;14.23;;;8.60;99.90;;;;;;4995511;28;20054;-79
2022/11/15 00:04:18;;;;;;;26.17;14.65;;;8.60;99.90;;;;;;4993880;28;20506;-79
2022/11/15 00:06:44;;;;;;;23.40;16.67;;;8.50;99.90;;;;;;4993555;28;20054;-79
2022/11/15 00:09:09;;;;;;;21.77;15.77;;;8.40;99.90;;;;;;4993679;28;20051;-79
2022/11/15 00:11:35;;;;;;;18.05;13.60;;;8.40;99.90;;;;;;4978403;28;20054;-79
2022/11/15 00:14:02;;;;;;;21.55;14.38;;;8.30;99.90;;;;;;4994063;28;20054;-79
2022/11/15 00:16:28;;;;;;;20.90;14.57;;;8.30;99.90;;;;;;4995006;28;20117;-79
2022/11/15 00:18:53;;;;;;;24.13;16.65;;;8.30;99.90;;;;;;4993995;28;20128;-78
2022/11/15 00:21:19;;;;;;;23.20;15.48;;;8.30;99.90;;;;;;4995001;28;20519;-79
2022/11/15 00:23:45;;;;;;;23.20;15.57;;;8.30;99.90;;;;;;4994242;28;20046;-79
2022/11/15 00:26:14;;;;;;;22.13;16.85;;;8.30;99.90;;;;;;4993892;28;20089;-79
2022/11/15 00:28:41;;;;;;;24.60;15.90;;;8.30;99.90;;;;;;4993801;28;20050;-79
2022/11/15 00:31:11;;;;;;;19.13;14.60;;;8.30;99.90;;;;;;4993890;28;20166;-79
2022/11/15 00:33:36;;;;;;;19.45;15.55;;;8.20;99.90;;;;;;4994606;28;20050;-81
2022/11/15 00:36:05;;;;;;;20.95;15.63;;;8.10;99.90;;;;;;4994606;28;20100;-79
2022/11/15 00:38:34;;;;;;;25.40;15.55;;;8.10;99.90;;;;;;4994514;28;20042;-80
2022/11/15 00:41:00;;;;;;;21.73;16.35;;;8.00;99.90;;;;;;4994437;28;20180;-79
2022/11/15 00:43:26;;;;;;;22.40;14.68;;;8.10;99.90;;;;;;4994874;28;20054;-79
2022/11/15 00:45:52;;;;;;;21.77;16.02;;;8.00;99.90;;;;;;4994270;28;20126;-79
2022/11/15 00:48:18;;;;;;;18.48;15.38;;;8.10;99.90;;;;;;4994395;28;20543;-80
2022/11/15 00:50:43;;;;;;;19.02;14.85;;;8.10;99.90;;;;;;5009907;28;20046;-79
2022/11/15 00:53:09;;;;;;;20.55;14.48;;;8.20;99.90;;;;;;4994287;28;20416;-80
2022/11/15 00:55:35;;;;;;;18.88;14.85;;;8.10;99.90;;;;;;5009477;28;20042;-79
2022/11/15 00:58:01;;;;;;;19.75;14.18;;;8.10;99.90;;;;;;4994171;28;20050;-79
2022/11/15 01:00:27;;;;;;;22.75;15.68;;;8.10;99.90;;;;;;4993470;28;20057;-80
2022/11/15 01:02:53;;;;;;;18.42;13.70;;;8.10;99.90;;;;;;4994142;28;20050;-81
2022/11/15 01:05:18;;;;;;;23.45;15.55;;;8.10;99.90;;;;;;4993632;28;20050;-81
2022/11/15 01:07:44;;;;;;;19.75;14.23;;;8.10;99.90;;;;;;4992696;28;20042;-79
2022/11/15 01:10:10;;;;;;;19.90;13.85;;;8.10;99.90;;;;;;4993674;28;20119;-80
2022/11/15 01:12:36;;;;;;;18.40;14.45;;;8.20;99.90;;;;;;4994023;28;20138;-80
2022/11/15 01:15:02;;;;;;;19.85;13.95;;;8.20;99.90;;;;;;4992964;28;20494;-81
2022/11/15 01:17:27;;;;;;;22.10;15.73;;;8.20;99.90;;;;;;4993813;28;20425;-80
2022/11/15 01:19:53;;;;;;;22.10;16.50;;;8.20;99.90;;;;;;4992509;28;20061;-80
2022/11/15 01:22:19;;;;;;;23.42;16.70;;;8.20;99.90;;;;;;4993671;28;20050;-80
2022/11/15 01:24:45;;;;;;;24.30;15.85;;;8.20;99.90;;;;;;4993443;28;20054;-79
2022/11/15 01:27:10;;;;;;;23.00;15.63;;;8.20;99.90;;;;;;4993607;28;20129;-79
2022/11/15 01:29:36;;;;;;;21.52;15.10;;;8.30;99.90;;;;;;4993894;28;20081;-80
2022/11/15 01:32:02;;;;;;;24.52;16.63;;;8.30;99.90;;;;;;4993536;28;20093;-80
2022/11/15 01:34:28;;;;;;;20.60;15.82;;;8.40;99.90;;;;;;4992241;28;20056;-79
2022/11/15 01:36:53;;;;;;;23.80;14.13;;;8.40;99.90;;;;;;4993672;28;20042;-79
2022/11/15 01:39:19;;;;;;;19.90;15.50;;;8.40;99.90;;;;;;4993835;28;20046;-79
2022/11/15 01:41:45;;;;;;;24.10;16.60;;;8.30;99.90;;;;;;4992597;28;20050;-79
2022/11/15 01:44:41;;;;;;;20.20;14.98;;;8.40;99.90;;;;;;4992773;28;20080;-79
2022/11/15 01:47:21;;;;;;;20.52;14.65;;;8.40;99.90;;;;;;4993294;28;20069;-79
2022/11/15 01:50:14;;;;;;;28.15;15.82;;;8.40;99.90;;;;;;4992874;28;20058;-79
2022/11/15 01:52:41;;;;;;;24.67;15.00;;;8.30;99.90;;;;;;4992329;28;20100;-79
2022/11/15 01:55:21;;;;;;;21.00;14.05;;;8.30;99.90;;;;;;4991627;28;20487;-80
2022/11/15 01:57:52;;;;;;;23.10;15.93;;;8.40;99.90;;;;;;4992248;28;20414;-80
2022/11/15 02:00:17;;;;;;;20.50;14.32;;;8.30;99.90;;;;;;4993334;28;20046;-80
2022/11/15 02:02:43;;;;;;;22.45;15.18;;;8.40;99.90;;;;;;4993718;28;20525;-79
2022/11/15 02:05:10;;;;;;;19.40;14.55;;;8.40;99.90;;;;;;4993673;28;20537;-81
2022/11/15 02:07:36;;;;;;;25.75;15.90;;;8.40;99.90;;;;;;4975960;28;20054;-80
2022/11/15 02:10:18;;;;;;;19.50;13.48;;;8.40;99.90;;;;;;4991567;28;20198;-80
2022/11/15 02:12:44;;;;;;;19.98;15.02;;;8.40;99.90;;;;;;4993128;28;20053;-79
2022/11/15 02:15:10;;;;;;;27.08;15.65;;;8.40;99.90;;;;;;4992439;28;20051;-80
2022/11/15 02:18:21;;;;;;;25.90;15.27;;;8.50;99.90;;;;;;4993416;28;20061;-80
2022/11/15 02:21:29;;;;;;;23.13;14.63;;;8.50;99.90;;;;;;4916471;29;20048;-79
2022/11/15 02:24:00;;;;;;;24.92;15.93;;;8.50;99.90;;;;;;4932709;29;20091;-79
2022/11/15 02:27:00;;;;;;;25.63;16.15;;;8.50;99.90;;;;;;4975233;28;20054;-79
2022/11/15 02:29:54;;;;;;;21.42;15.90;;;8.50;99.90;;;;;;4992872;28;20096;-80
2022/11/15 02:32:38;;;;;;;19.80;14.82;;;8.50;99.90;;;;;;4958853;28;20058;-79
2022/11/15 02:35:10;;;;;;;20.73;14.55;;;8.60;99.90;;;;;;4992738;28;20053;-79
2022/11/15 02:38:12;;;;;;;20.73;14.95;;;8.60;99.90;;;;;;4992797;28;20079;-79
2022/11/15 02:40:59;;;;;;;25.95;14.85;;;8.60;99.90;;;;;;4991483;28;20050;-79
2022/11/15 02:43:58;;;;;;;26.30;15.07;;;8.60;99.90;;;;;;4992229;28;20057;-79
2022/11/15 02:47:15;;;;;;;20.77;12.18;;;8.60;99.90;;;;;;4993651;28;20049;-79
2022/11/15 02:49:49;;;;;;;20.85;14.48;;;8.70;99.90;;;;;;4965939;28;20078;-80
2022/11/15 02:52:21;;;;;;;21.05;13.75;;;8.70;99.90;;;;;;4996560;28;20185;-79
2022/11/15 02:54:59;;;;;;;19.13;13.30;;;8.70;99.90;;;;;;4996401;28;20133;-79
2022/11/15 02:57:51;;;;;;;23.20;15.48;;;8.70;99.90;;;;;;4995343;28;20057;-79
2022/11/15 03:00:19;;;;;;;21.23;13.27;;;8.70;99.90;;;;;;4996417;28;20050;-79
2022/11/15 03:02:59;;;;;;;21.77;14.85;;;8.70;99.90;;;;;;4996217;28;20054;-79
2022/11/15 03:05:43;;;;;;;20.35;13.02;;;8.70;99.90;;;;;;4996416;28;20042;-79
2022/11/15 03:08:15;;;;;;;21.40;14.32;;;8.70;99.90;;;;;;4995478;28;20050;-79
2022/11/15 03:10:56;;;;;;;21.30;12.82;;;8.80;99.90;;;;;;4995926;28;20105;-80
2022/11/15 03:13:35;;;;;;;24.33;15.45;;;8.80;99.90;;;;;;4996239;28;20479;-79
2022/11/15 03:16:06;;;;;;;21.58;14.18;;;8.80;99.90;;;;;;4996388;28;20085;-80
2022/11/15 03:18:54;;;;;;;25.52;15.07;;;8.80;99.90;;;;;;4996173;28;20096;-80
2022/11/15 03:21:22;;;;;;;22.10;12.70;;;8.80;99.90;;;;;;4978764;28;20057;-79
2022/11/15 03:23:49;;;;;;;26.70;14.02;;;8.80;99.90;;;;;;4996221;28;20174;-80
2022/11/15 03:26:19;;;;;;;18.00;13.23;;;8.80;99.90;;;;;;4996318;28;20481;-79
2022/11/15 03:29:00;;;;;;;21.80;14.55;;;8.80;99.90;;;;;;4995561;28;20514;-80
2022/11/15 03:31:46;;;;;;;23.40;13.85;;;8.80;99.90;;;;;;4995995;28;20042;-79
2022/11/15 03:34:18;;;;;;;21.73;13.43;;;8.80;99.90;;;;;;4995465;28;20050;-79
2022/11/15 03:36:45;;;;;;;26.60;14.80;;;8.80;99.90;;;;;;4978780;28;20125;-80
2022/11/15 03:39:13;;;;;;;22.15;15.63;;;8.80;99.90;;;;;;4994739;28;20058;-79
2022/11/15 03:41:59;;;;;;;26.38;15.85;;;8.90;99.90;;;;;;4995654;28;20050;-80
2022/11/15 03:44:57;;;;;;;29.98;15.93;;;8.80;99.90;;;;;;4994944;28;20038;-79
2022/11/15 03:47:39;;;;;;;26.15;16.30;;;8.90;99.90;;;;;;4983822;28;20097;-79
2022/11/15 03:50:12;;;;;;;21.52;15.52;;;8.90;99.90;;;;;;4994833;28;20367;-79
2022/11/15 03:52:40;;;;;;;30.92;18.40;;;8.80;99.90;;;;;;4995012;28;20057;-79
2022/11/15 03:55:11;;;;;;;27.88;16.92;;;8.90;99.90;;;;;;4978265;28;20053;-80
2022/11/15 03:57:37;;;;;;;28.75;16.80;;;8.90;99.90;;;;;;4994445;28;20046;-79
2022/11/15 04:00:06;;;;;;;26.20;16.20;;;8.90;99.90;;;;;;4995181;28;20047;-79
2022/11/15 04:02:32;;;;;;;28.52;16.60;;;8.90;99.90;;;;;;4994556;28;20058;-79
2022/11/15 04:04:57;;;;;;;30.60;16.63;;;8.90;99.90;;;;;;4995178;28;20138;-79
2022/11/15 04:07:23;;;;;;;31.60;17.85;;;9.00;99.90;;;;;;4995192;28;20050;-79
2022/11/15 04:10:05;;;;;;;33.10;20.05;;;9.00;99.90;;;;;;4995804;28;20042;-80
2022/11/15 04:12:39;;;;;;;34.67;18.13;;;9.00;99.90;;;;;;4995406;28;20046;-79
2022/11/15 04:15:11;;;;;;;37.65;19.58;;;9.00;99.90;;;;;;4995229;28;20500;-79
2022/11/15 04:17:51;;;;;;;28.27;19.00;;;9.00;99.90;;;;;;4995166;28;20056;-78
2022/11/15 04:26:11;;;;;;;32.33;19.63;;;9.00;99.90;;;;;;4995461;28;20108;-79
2022/11/15 04:29:34;;;;;;;29.52;17.10;;;9.00;99.90;;;;;;4995450;28;20173;-79
2022/11/15 04:31:26;;;;;;;30.77;19.00;;;9.10;99.90;;;;;;4995370;28;20058;-79
2022/11/15 04:33:52;;;;;;;33.65;20.10;;;9.10;99.90;;;;;;4993826;28;20081;-79
2022/11/15 04:39:01;;;;;;;30.25;19.33;;;9.10;99.90;;;;;;4994767;28;20490;-79
2022/11/15 04:41:28;;;;;;;33.42;19.77;;;9.10;99.90;;;;;;4994766;28;20077;-79
2022/11/15 04:43:54;;;;;;;27.55;18.30;;;9.10;99.90;;;;;;4993425;28;20043;-79
2022/11/15 04:46:21;;;;;;;32.22;18.40;;;9.20;99.90;;;;;;4993344;28;20129;-79
2022/11/15 04:48:46;;;;;;;33.13;19.13;;;9.10;99.90;;;;;;4994174;28;20427;-79
2022/11/15 04:51:12;;;;;;;30.20;19.15;;;9.10;99.90;;;;;;4994372;28;20061;-80
2022/11/15 04:53:38;;;;;;;35.90;19.45;;;9.20;99.90;;;;;;5009474;28;20053;-79
2022/11/15 04:56:04;;;;;;;32.30;19.48;;;9.20;99.90;;;;;;4994855;28;20410;-79
2022/11/15 04:58:29;;;;;;;31.50;20.55;;;9.20;99.90;;;;;;4994326;28;20053;-79
2022/11/15 05:00:55;;;;;;;34.58;19.83;;;9.20;99.90;;;;;;4994272;28;20050;-79
2022/11/15 05:06:06;;;;;;;36.55;21.08;;;9.30;99.90;;;;;;4992728;28;20133;-79
2022/11/15 05:08:32;;;;;;;40.35;24.30;;;9.30;99.90;;;;;;4992886;28;20100;-78
2022/11/15 05:10:57;;;;;;;37.85;22.42;;;9.30;99.90;;;;;;4993803;28;20054;-79
2022/11/15 05:13:23;;;;;;;31.15;21.77;;;9.40;99.90;;;;;;4993992;28;20050;-79
2022/11/15 05:15:48;;;;;;;40.05;21.95;;;9.40;99.90;;;;;;4992825;28;20117;-79
2022/11/15 05:18:14;;;;;;;35.15;22.45;;;9.40;99.90;;;;;;4993849;28;20050;-79
2022/11/15 05:20:40;;;;;;;38.85;20.45;;;9.40;99.90;;;;;;4992501;28;20050;-80
2022/11/15 05:23:05;;;;;;;36.60;23.70;;;9.50;99.90;;;;;;4960594;28;20487;-82
2022/11/15 05:25:31;;;;;;;50.10;24.75;;;9.50;99.90;;;;;;4993695;28;20078;-79
2022/11/15 05:27:57;;;;;;;43.78;24.13;;;9.50;99.90;;;;;;4993701;28;20470;-79
2022/11/15 05:30:23;;;;;;;46.42;24.20;;;9.60;99.90;;;;;;4992549;28;20129;-79
2022/11/15 05:32:49;;;;;;;36.92;23.85;;;9.70;99.90;;;;;;4993652;28;20533;-79
2022/11/15 05:35:31;;;;;;;41.05;25.50;;;9.60;99.90;;;;;;4993800;28;20042;-79
2022/11/15 05:37:57;;;;;;;42.53;25.80;;;9.70;99.90;;;;;;4992551;28;20125;-79
2022/11/15 05:40:23;;;;;;;45.13;25.13;;;9.70;99.90;;;;;;4993071;28;20131;-79
2022/11/15 05:42:50;;;;;;;41.95;23.83;;;9.70;99.90;;;;;;4993351;28;20105;-79
2022/11/15 05:45:16;;;;;;;44.28;24.38;;;9.80;99.90;;;;;;4993144;28;20056;-79
2022/11/15 05:47:42;;;;;;;40.75;23.27;;;9.80;99.90;;;;;;4993285;28;20046;-79
2022/11/15 05:50:12;;;;;;;43.30;22.90;;;9.80;99.90;;;;;;4993628;28;20046;-79
2022/11/15 05:52:38;;;;;;;42.83;23.17;;;9.80;99.90;;;;;;4992492;28;20057;-79
2022/11/15 05:55:06;;;;;;;36.35;23.77;;;9.90;99.90;;;;;;4993222;28;20074;-80
2022/11/15 05:57:32;;;;;;;37.78;23.70;;;9.90;99.90;;;;;;4993259;28;20575;-80
2022/11/15 05:59:58;;;;;;;42.15;25.42;;;9.90;99.90;;;;;;4992503;28;20042;-79
2022/11/15 06:02:23;;;;;;;44.42;24.85;;;10.00;99.90;;;;;;4993280;28;20050;-79
2022/11/15 06:04:49;;;;;;;36.80;22.75;;;10.10;99.90;;;;;;4992550;28;20493;-79
2022/11/15 06:07:15;;;;;;;36.72;22.42;;;10.10;99.90;;;;;;5008285;28;20047;-79
2022/11/15 06:09:40;;;;;;;38.17;22.98;;;10.10;99.90;;;;;;4993426;28;20136;-79
2022/11/15 06:12:06;;;;;;;46.15;23.83;;;10.10;99.90;;;;;;4993023;28;20478;-79
2022/11/15 06:14:32;;;;;;;35.38;21.45;;;10.10;99.90;;;;;;4991999;28;20526;-79
2022/11/15 06:16:57;;;;;;;37.45;22.90;;;10.20;99.90;;;;;;4991901;28;20050;-79
2022/11/15 06:19:23;;;;;;;36.92;22.13;;;10.20;99.90;;;;;;4992821;28;20052;-79
2022/11/15 06:21:49;;;;;;;39.95;24.27;;;10.20;99.90;;;;;;4990328;28;20046;-78
2022/11/15 06:24:14;;;;;;;36.80;21.90;;;10.30;99.90;;;;;;4991916;28;20054;-79
2022/11/15 06:26:40;;;;;;;40.25;23.92;;;10.30;99.90;;;;;;4992727;28;20467;-79
2022/11/15 06:29:06;;;;;;;34.10;22.80;;;10.40;99.90;;;;;;4991198;28;20042;-79
2022/11/15 06:31:33;;;;;;;36.80;21.83;;;10.30;99.90;;;;;;4992249;28;20054;-79
2022/11/15 06:33:58;;;;;;;38.15;22.90;;;10.40;99.90;;;;;;4992749;28;20046;-79
2022/11/15 06:36:24;;;;;;;37.92;23.98;;;10.40;99.90;;;;;;4992522;28;20136;-79
2022/11/15 06:38:50;;;;;;;40.28;23.80;;;10.50;99.90;;;;;;4975081;28;20046;-79
2022/11/15 06:41:16;;;;;;;35.20;24.00;;;10.50;99.90;;;;;;4992555;28;20046;-79
2022/11/15 06:43:42;;;;;;;36.42;22.88;;;10.50;99.90;;;;;;4992543;28;20471;-79
2022/11/15 06:46:08;;;;;;;33.20;20.92;;;10.50;99.90;;;;;;4992396;28;20077;-79
2022/11/15 06:48:35;;;;;;;36.65;23.25;;;10.60;99.90;;;;;;4991554;28;20055;-79
2022/11/15 06:51:03;;;;;;;37.55;21.48;;;10.60;99.90;;;;;;4991355;28;20054;-79
2022/11/15 06:53:30;;;;;;;33.42;21.88;;;10.60;99.90;;;;;;4992768;28;20408;-79
2022/11/15 06:56:01;;;;;;;38.67;22.38;;;10.70;99.90;;;;;;4991503;28;20053;-79
2022/11/15 06:58:26;;;;;;;36.78;22.95;;;10.70;99.90;;;;;;4992448;28;20042;-79
2022/11/15 07:00:52;;;;;;;37.55;21.52;;;10.70;99.90;;;;;;4991113;28;20042;-79
2022/11/15 07:03:18;;;;;;;32.63;21.27;;;10.70;99.90;;;;;;4993324;28;20067;-79
2022/11/15 07:05:54;;;;;;;32.28;20.50;;;10.80;99.90;;;;;;4992773;28;20042;-79
2022/11/15 07:08:20;;;;;;;33.65;20.98;;;10.80;99.90;;;;;;4992433;28;20121;-79
2022/11/15 07:10:46;;;;;;;37.83;21.52;;;10.80;99.90;;;;;;4992317;28;20058;-80
2022/11/15 07:13:12;;;;;;;31.05;20.42;;;10.80;99.90;;;;;;4991149;28;20042;-79
2022/11/15 07:15:37;;;;;;;29.38;19.80;;;10.80;99.90;;;;;;4991330;28;20055;-80
2022/11/15 07:18:03;;;;;;;33.53;20.05;;;10.80;99.90;;;;;;4991345;28;20093;-80
2022/11/15 07:20:29;;;;;;;34.03;20.10;;;10.90;99.90;;;;;;4992213;28;20047;-79
2022/11/15 07:23:03;;;;;;;35.10;20.25;;;10.90;99.90;;;;;;4990926;28;20050;-79
2022/11/15 07:25:28;;;;;;;32.50;20.85;;;10.90;99.90;;;;;;4991372;28;20140;-79
2022/11/15 07:27:58;;;;;;;34.83;19.70;;;10.90;99.90;;;;;;4992244;28;20046;-79
2022/11/15 07:30:25;;;;;;;30.38;18.98;;;11.00;99.90;;;;;;5007582;28;20121;-79
2022/11/15 07:32:59;;;;;;;31.95;19.80;;;11.00;99.90;;;;;;4993830;28;20046;-79
2022/11/15 07:35:26;;;;;;;36.28;18.80;;;11.00;99.90;;;;;;4996112;28;20046;-79
2022/11/15 07:37:59;;;;;;;34.10;18.17;;;11.00;99.90;;;;;;4995319;28;20433;-79
2022/11/15 07:40:27;;;;;;;30.02;17.88;;;11.10;99.90;;;;;;4996031;28;20085;-79
2022/11/15 07:42:59;;;;;;;36.42;19.48;;;11.10;99.90;;;;;;4995406;28;20589;-80
2022/11/15 07:45:26;;;;;;;30.17;15.90;;;11.10;99.90;;;;;;4994915;28;20395;-79
2022/11/15 07:47:52;;;;;;;28.70;18.25;;;11.20;99.90;;;;;;4996493;28;20113;-80
2022/11/15 07:50:18;;;;;;;31.25;18.17;;;11.20;99.90;;;;;;5007223;28;20046;-79
2022/11/15 07:52:45;;;;;;;29.13;19.17;;;11.20;99.90;;;;;;5009741;28;20050;-80
2022/11/15 07:55:11;;;;;;;27.27;17.38;;;11.20;99.90;;;;;;4995406;28;20089;-79
2022/11/15 07:57:37;;;;;;;26.13;16.73;;;11.30;99.90;;;;;;4994664;28;20086;-79
2022/11/15 08:00:05;;;;;;;24.85;15.93;;;11.30;99.90;;;;;;4995396;28;20531;-79
2022/11/15 08:02:30;;;;;;;21.30;14.23;;;11.30;99.90;;;;;;4995335;28;20153;-79
2022/11/15 08:04:56;;;;;;;24.85;15.18;;;11.30;99.90;;;;;;4995215;28;20447;-79
2022/11/15 08:07:22;;;;;;;22.50;15.45;;;11.40;99.90;;;;;;4994316;28;20129;-79
2022/11/15 08:09:47;;;;;;;27.10;17.13;;;11.40;99.90;;;;;;4995164;28;20046;-79
2022/11/15 08:12:14;;;;;;;22.70;14.55;;;11.50;99.90;;;;;;4994411;28;20141;-79
2022/11/15 08:14:40;;;;;;;21.83;15.02;;;11.40;99.90;;;;;;4995012;28;20045;-79
2022/11/15 08:17:05;;;;;;;19.98;15.45;;;11.50;99.90;;;;;;4995330;28;20100;-79
2022/11/15 08:19:31;;;;;;;21.85;15.48;;;11.50;99.90;;;;;;4995052;28;20054;-79
2022/11/15 08:21:57;;;;;;;23.92;13.85;;;11.50;99.90;;;;;;4994731;28;20512;-81
2022/11/15 08:24:22;;;;;;;24.55;15.73;;;11.60;99.90;;;;;;4995089;28;20050;-79
2022/11/15 08:26:48;;;;;;;22.50;14.38;;;11.60;99.90;;;;;;4994769;28;20434;-82
2022/11/15 08:29:14;;;;;;;21.83;13.95;;;11.70;99.90;;;;;;4978343;28;20067;-83
2022/11/15 08:31:39;;;;;;;21.50;15.30;;;11.80;99.90;;;;;;4995221;28;20485;-78
2022/11/15 08:34:06;;;;;;;22.63;14.48;;;11.80;99.90;;;;;;4995198;28;20042;-80
2022/11/15 08:36:32;;;;;;;18.55;13.32;;;11.80;99.90;;;;;;4994762;28;20043;-80
2022/11/15 08:38:57;;;;;;;20.25;14.85;;;11.90;99.90;;;;;;4995357;28;20056;-80
2022/11/15 08:41:37;;;;;;;22.65;14.32;;;11.90;99.90;;;;;;4994711;28;20465;-79
2022/11/15 08:44:03;;;;;;;21.80;14.00;;;12.00;99.90;;;;;;4993966;28;20061;-79
2022/11/15 08:46:29;;;;;;;19.77;13.55;;;12.00;99.90;;;;;;4994397;28;20118;-80
2022/11/15 08:48:54;;;;;;;19.33;14.48;;;12.00;99.90;;;;;;4994609;28;20473;-79
2022/11/15 08:51:20;;;;;;;19.02;13.90;;;12.10;99.90;;;;;;4994807;28;20042;-79
2022/11/15 08:53:46;;;;;;;19.77;13.65;;;12.20;99.90;;;;;;4994413;28;20074;-78
2022/11/15 08:56:14;;;;;;;18.00;12.65;;;12.30;99.90;;;;;;4993294;28;20160;-79
2022/11/15 08:58:40;;;;;;;20.48;13.98;;;12.30;99.90;;;;;;4994506;28;20068;-79
2022/11/15 09:01:06;;;;;;;21.95;14.48;;;12.40;99.90;;;;;;4993823;28;20471;-79
2022/11/15 09:03:32;;;;;;;20.05;13.00;;;12.40;99.90;;;;;;4994001;28;20065;-79
2022/11/15 09:05:59;;;;;;;16.77;13.52;;;12.30;99.90;;;;;;4993635;28;20046;-78
2022/11/15 09:08:29;;;;;;;19.67;13.63;;;12.40;99.90;;;;;;4994100;28;20046;-79
2022/11/15 09:10:54;;;;;;;19.50;12.82;;;12.40;99.90;;;;;;4993997;28;20050;-78
2022/11/15 09:13:20;;;;;;;21.90;13.13;;;12.30;99.90;;;;;;4994006;28;20050;-78
2022/11/15 09:15:46;;;;;;;15.40;11.15;;;12.40;99.90;;;;;;4994459;28;20081;-79
2022/11/15 09:18:11;;;;;;;19.20;12.88;;;12.40;99.90;;;;;;4992963;28;20057;-79
2022/11/15 09:20:37;;;;;;;16.60;12.25;;;12.40;99.90;;;;;;4994386;28;20050;-79
2022/11/15 09:23:04;;;;;;;22.63;13.75;;;12.40;99.90;;;;;;4993946;28;20431;-79
2022/11/15 09:25:30;;;;;;;22.60;12.65;;;12.40;99.90;;;;;;4994212;28;20054;-78
2022/11/15 09:27:56;;;;;;;22.25;13.13;;;12.50;99.90;;;;;;4992511;28;20038;-78
2022/11/15 09:30:23;;;;;;;21.48;14.05;;;12.50;99.90;;;;;;4993082;28;20095;-77
2022/11/15 09:32:49;;;;;;;19.52;12.68;;;12.50;99.90;;;;;;4992836;28;20628;-78
2022/11/15 09:35:15;;;;;;;18.95;12.60;;;12.50;99.90;;;;;;4976585;28;20046;-81
2022/11/15 09:37:41;;;;;;;19.00;12.18;;;12.50;99.90;;;;;;4993205;28;20046;-80
2022/11/15 09:40:12;;;;;;;20.27;13.90;;;12.60;99.90;;;;;;4976233;28;20081;-79
2022/11/15 09:43:10;;;;;;;17.40;12.73;;;12.60;99.90;;;;;;4993646;28;20077;-79
2022/11/15 09:45:54;;;;;;;19.35;12.30;;;12.70;99.90;;;;;;4981742;28;20050;-88
2022/11/15 09:48:28;;;;;;;19.55;12.57;;;12.70;99.90;;;;;;4992527;28;20437;-79
2022/11/15 09:51:00;;;;;;;17.70;11.48;;;12.80;99.90;;;;;;4993397;28;20057;-80
2022/11/15 09:53:32;;;;;;;17.83;12.45;;;12.80;99.90;;;;;;4992806;28;20129;-79
2022/11/15 09:56:00;;;;;;;22.92;12.73;;;12.90;99.90;;;;;;4992691;28;20117;-79
2022/11/15 09:58:39;;;;;;;20.67;11.48;;;12.90;99.90;;;;;;4992084;28;20537;-79
2022/11/15 10:01:17;;;;;;;14.60;10.95;;;13.30;99.90;;;;;;4975656;28;20054;-79
2022/11/15 10:03:45;;;;;;;17.15;10.35;;;12.90;99.90;;;;;;4992014;28;20050;-81
2022/11/15 10:06:23;;;;;;;17.77;11.05;;;12.90;99.90;;;;;;4993493;28;20125;-79
2022/11/15 10:08:58;;;;;;;15.45;10.50;;;12.90;99.90;;;;;;4992200;28;20058;-79
2022/11/15 10:11:27;;;;;;;14.80;10.57;;;12.90;99.90;;;;;;4993375;28;20081;-79
2022/11/15 10:14:15;;;;;;;19.23;11.27;;;12.90;99.90;;;;;;4992915;28;20046;-78
2022/11/15 10:16:44;;;;;;;20.52;11.60;;;12.90;99.90;;;;;;4991422;28;20062;-79
2022/11/15 10:19:24;;;;;;;16.08;11.43;;;13.00;99.90;;;;;;4991976;28;20057;-79
2022/11/15 10:21:59;;;;;;;16.83;10.70;;;12.90;99.90;;;;;;4993035;28;20062;-79
2022/11/15 10:24:30;;;;;;;15.68;10.18;;;12.90;99.90;;;;;;4993486;28;20054;-79
2022/11/15 10:26:56;;;;;;;14.32;10.73;;;12.90;99.90;;;;;;4992968;28;20097;-79
2022/11/15 10:29:24;;;;;;;14.35;9.50;;;12.90;99.90;;;;;;4993022;28;20046;-80
2022/11/15 10:31:50;;;;;;;14.82;10.60;;;12.90;99.90;;;;;;4992879;28;20100;-78
2022/11/15 10:34:26;;;;;;;12.68;8.98;;;12.80;99.90;;;;;;4992834;28;20042;-78
2022/11/15 10:36:57;;;;;;;12.30;8.82;;;12.80;99.90;;;;;;4993071;28;20128;-83
2022/11/15 10:39:24;;;;;;;17.98;9.45;;;12.80;99.90;;;;;;4993553;28;20065;-76
2022/11/15 10:41:50;;;;;;;18.17;11.25;;;12.70;99.90;;;;;;4992512;28;20050;-79
2022/11/15 10:44:28;;;;;;;13.30;9.30;;;12.70;99.90;;;;;;4992781;28;20080;-80
2022/11/15 10:47:04;;;;;;;11.32;9.45;;;12.80;99.90;;;;;;4991684;28;20046;-78
2022/11/15 10:49:34;;;;;;;13.63;10.05;;;12.70;99.90;;;;;;4992305;28;20470;-87
2022/11/15 10:52:19;;;;;;;14.23;10.13;;;12.70;99.90;;;;;;4992700;28;20079;-88
2022/11/15 10:55:09;;;;;;;10.80;9.35;;;12.70;99.90;;;;;;4991597;28;20065;-86
2022/11/15 10:57:39;;;;;;;12.90;9.88;;;12.70;99.90;;;;;;4990000;28;20117;-88
2022/11/15 11:00:32;;;;;;;14.60;10.75;;;12.70;99.90;;;;;;4991630;28;20058;-88
2022/11/15 11:03:02;;;;;;;13.80;9.32;;;12.70;99.90;;;;;;4992675;28;20046;-77
2022/11/15 11:05:37;;;;;;;17.15;10.43;;;12.80;99.90;;;;;;4992641;28;20054;-77
2022/11/15 11:08:22;;;;;;;16.52;10.85;;;12.90;99.90;;;;;;4994639;28;20046;-77
2022/11/15 11:10:57;;;;;;;12.43;9.32;;;12.90;99.90;;;;;;4996148;28;20058;-76
2022/11/15 11:13:25;;;;;;;14.15;8.82;;;12.90;99.90;;;;;;4996141;28;20054;-78
2022/11/15 11:16:14;;;;;;;11.30;9.20;;;12.90;99.90;;;;;;4996227;28;20463;-77
2022/11/15 11:18:57;;;;;;;11.10;8.77;;;12.90;99.90;;;;;;4996182;28;20072;-77
2022/11/15 11:22:02;;;;;;;14.27;9.77;;;12.90;99.90;;;;;;4995739;28;20125;-78
2022/11/15 11:24:40;;;;;;;12.70;9.48;;;12.90;99.90;;;;;;4994826;28;20061;-78
2022/11/15 11:27:12;;;;;;;11.77;8.88;;;12.90;99.90;;;;;;4995833;28;20042;-79
2022/11/15 11:30:08;;;;;;;11.15;7.95;;;12.90;99.90;;;;;;4995711;28;20046;-78
2022/11/15 11:32:46;;;;;;;11.57;8.98;;;13.00;99.90;;;;;;4995997;28;20050;-78
2022/11/15 11:35:30;;;;;;;12.85;9.65;;;13.10;99.90;;;;;;4995907;28;20046;-78
2022/11/15 11:38:37;;;;;;;16.55;8.80;;;13.20;99.90;;;;;;4994697;28;20046;-78
2022/11/15 11:41:14;;;;;;;11.85;9.18;;;13.40;99.90;;;;;;4996186;28;20054;-78
2022/11/15 11:44:10;;;;;;;13.23;8.70;;;13.40;99.90;;;;;;4995376;28;20054;-78
2022/11/15 11:46:47;;;;;;;10.15;8.20;;;13.40;99.90;;;;;;4994651;28;20052;-78
2022/11/15 11:49:16;;;;;;;10.25;8.88;;;13.40;99.90;;;;;;4995294;28;20459;-78
2022/11/15 11:51:49;;;;;;;14.05;9.32;;;13.40;99.90;;;;;;4994299;28;20050;-78
2022/11/15 11:54:38;;;;;;;10.13;7.57;;;13.50;99.90;;;;;;4995195;28;20126;-78
2022/11/15 11:57:12;;;;;;;12.48;7.97;;;13.40;99.90;;;;;;4995646;28;20047;-78
2022/11/15 11:59:47;;;;;;;9.20;6.35;;;13.40;99.90;;;;;;4995485;28;20057;-79
2022/11/15 12:02:24;;;;;;;7.97;6.20;;;13.40;99.90;;;;;;4994492;28;20054;-78
2022/11/15 12:04:56;;;;;;;7.93;6.70;;;13.40;99.90;;;;;;4994889;28;20129;-78
2022/11/15 12:07:30;;;;;;;5.95;5.43;;;13.40;99.90;;;;;;4995438;28;20046;-79
2022/11/15 12:10:05;;;;;;;8.02;5.35;;;13.40;99.90;;;;;;4995299;28;20046;-79
2022/11/15 12:12:39;;;;;;;6.13;5.07;;;13.40;99.90;;;;;;4995247;28;20196;-78
2022/11/15 12:15:13;;;;;;;6.00;4.93;;;13.30;99.90;;;;;;4995096;28;20092;-79
2022/11/15 12:17:44;;;;;;;8.90;6.43;;;13.20;99.90;;;;;;4995153;28;20042;-79
2022/11/15 12:20:20;;;;;;;6.43;5.03;;;13.20;99.90;;;;;;5009405;28;20038;-79
2022/11/15 12:22:59;;;;;;;6.50;5.32;;;13.20;99.90;;;;;;4993611;28;20141;-79
2022/11/15 12:25:37;;;;;;;6.35;4.82;;;13.20;99.90;;;;;;4995540;28;20191;-79
2022/11/15 12:28:30;;;;;;;9.73;5.57;;;13.20;99.90;;;;;;4995258;28;20473;-79
2022/11/15 12:31:16;;;;;;;7.00;4.32;;;13.10;99.90;;;;;;4977849;28;20058;-79
2022/11/15 12:33:46;;;;;;;8.57;3.80;;;13.10;99.90;;;;;;4993815;28;20074;-79
2022/11/15 12:36:21;;;;;;;6.47;3.88;;;13.00;99.90;;;;;;4993931;28;20085;-79
2022/11/15 12:38:50;;;;;;;4.68;4.15;;;12.90;99.90;;;;;;4993835;28;20042;-79
2022/11/15 12:41:18;;;;;;;5.25;4.68;;;12.80;99.90;;;;;;4994579;28;20046;-79
2022/11/15 12:43:45;;;;;;;5.93;4.68;;;12.80;99.90;;;;;;4994625;28;20050;-79
2022/11/15 12:46:29;;;;;;;7.03;4.40;;;12.80;99.90;;;;;;4994432;28;20053;-79
2022/11/15 12:49:00;;;;;;;4.95;4.50;;;12.80;99.90;;;;;;4993517;28;20061;-79
2022/11/15 12:51:48;;;;;;;5.28;3.65;;;12.70;99.90;;;;;;4993701;28;20062;-79
2022/11/15 12:54:22;;;;;;;4.32;3.92;;;12.60;99.90;;;;;;4994775;28;20107;-79
2022/11/15 12:57:03;;;;;;;6.30;4.38;;;12.60;99.90;;;;;;4977401;28;20182;-79
2022/11/15 12:59:59;;;;;;;4.65;3.80;;;12.60;99.90;;;;;;4993924;28;20055;-79
2022/11/15 13:02:45;;;;;;;4.85;3.70;;;12.70;99.90;;;;;;4993490;28;20057;-79
2022/11/15 13:05:19;;;;;;;7.95;4.88;;;12.70;99.90;;;;;;4994589;28;20097;-79
2022/11/15 13:07:45;;;;;;;8.90;3.65;;;12.80;99.90;;;;;;4993491;28;20468;-79